createdAt,value
2023-01-22T00:00:03.908Z,-0.12
2023-01-22T00:01:03.849Z,-0.12
2023-01-22T00:02:03.750Z,-0.12
2023-01-22T00:03:03.841Z,-0.12
2023-01-22T00:04:03.899Z,-0.12
2023-01-22T00:05:03.753Z,-0.12
2023-01-22T00:06:03.757Z,-0.12
2023-01-22T00:07:03.659Z,-0.12
2023-01-22T00:08:03.589Z,-0.12
2023-01-22T00:09:03.511Z,-0.12
2023-01-22T00:10:03.514Z,-0.12
2023-01-22T00:11:04.387Z,-0.12
2023-01-22T00:12:04.423Z,-0.12
2023-01-22T00:13:04.394Z,-0.12
2023-01-22T00:14:04.339Z,-0.12
2023-01-22T00:15:04.319Z,-0.06
2023-01-22T00:16:04.269Z,-0.06
2023-01-22T00:17:04.161Z,-0.06
2023-01-22T00:18:04.169Z,-0.12
2023-01-22T00:19:04.171Z,-0.06
2023-01-22T00:20:03.998Z,-0.12
2023-01-22T00:21:04.008Z,-0.12
2023-01-22T00:22:03.907Z,-0.12
2023-01-22T00:23:03.838Z,-0.12
2023-01-22T00:24:03.832Z,-0.12
2023-01-22T00:25:03.737Z,-0.12
2023-01-22T00:26:03.752Z,-0.12
2023-01-22T00:27:03.755Z,-0.12
2023-01-22T00:28:03.918Z,-0.12
2023-01-22T00:29:03.832Z,-0.12
2023-01-22T00:30:03.745Z,-0.12
2023-01-22T00:31:04.054Z,-0.12
2023-01-22T00:32:03.978Z,-0.12
2023-01-22T00:33:03.755Z,-0.12
2023-01-22T00:34:03.744Z,-0.12
2023-01-22T00:35:03.839Z,-0.12
2023-01-22T00:36:03.837Z,-0.06
2023-01-22T00:37:03.851Z,-0.06
2023-01-22T00:38:03.760Z,-0.06
2023-01-22T00:39:03.752Z,-0.06
2023-01-22T00:40:03.877Z,-0.06
2023-01-22T00:41:03.925Z,-0.06
2023-01-22T00:42:03.749Z,-0.12
2023-01-22T00:43:03.911Z,-0.12
2023-01-22T00:44:03.830Z,-0.12
2023-01-22T00:45:03.829Z,-0.12
2023-01-22T00:46:03.941Z,-0.12
2023-01-22T00:47:03.913Z,-0.12
2023-01-22T00:48:03.914Z,-0.06
2023-01-22T00:49:03.993Z,-0.06
2023-01-22T00:50:03.994Z,-0.12
2023-01-22T00:51:03.982Z,-0.12
2023-01-22T00:52:03.749Z,-0.06
2023-01-22T00:53:03.776Z,-0.12
2023-01-22T00:54:03.667Z,-0.12
2023-01-22T00:55:03.756Z,-0.12
2023-01-22T00:56:03.682Z,-0.06
2023-01-22T00:57:03.699Z,-0.12
2023-01-22T00:58:03.589Z,-0.06
2023-01-22T00:59:03.514Z,-0.06
2023-01-22T01:00:03.587Z,-0.06
2023-01-22T01:01:03.662Z,-0.06
2023-01-22T01:02:03.664Z,-0.06
2023-01-22T01:03:03.419Z,-0.06
2023-01-22T01:04:03.502Z,-0.06
2023-01-22T01:05:03.524Z,-0.06
2023-01-22T01:06:04.402Z,-0.06
2023-01-22T01:07:03.752Z,-0.06
2023-01-22T01:08:03.670Z,-0.06
2023-01-22T01:09:03.588Z,-0.06
2023-01-22T01:10:03.928Z,-0.06
2023-01-22T01:11:03.827Z,-0.06
2023-01-22T01:12:03.754Z,-0.06
2023-01-22T01:13:03.829Z,-0.06
2023-01-22T01:14:03.994Z,-0.06
2023-01-22T01:15:03.986Z,-0.06
2023-01-22T01:16:04.062Z,-0.06
2023-01-22T01:17:03.991Z,-0.06
2023-01-22T01:18:04.070Z,-0.06
2023-01-22T01:19:03.833Z,-0.06
2023-01-22T01:20:03.752Z,-0.06
2023-01-22T01:21:03.588Z,-0.06
2023-01-22T01:22:03.681Z,-0.06
2023-01-22T01:23:03.667Z,-0.06
2023-01-22T01:24:03.599Z,-0.06
2023-01-22T01:25:03.592Z,-0.06
2023-01-22T01:26:03.512Z,-0.06
2023-01-22T01:27:04.395Z,-0.12
2023-01-22T01:28:04.316Z,-0.12
2023-01-22T01:29:04.320Z,-0.12
2023-01-22T01:30:04.317Z,-0.12
2023-01-22T01:31:04.342Z,-0.12
2023-01-22T01:32:04.211Z,-0.12
2023-01-22T01:33:04.236Z,-0.12
2023-01-22T01:34:04.148Z,-0.12
2023-01-22T01:35:04.159Z,-0.12
2023-01-22T01:36:04.069Z,-0.12
2023-01-22T01:37:04.028Z,-0.12
2023-01-22T01:38:04.061Z,-0.12
2023-01-22T01:39:03.988Z,-0.12
2023-01-22T01:40:04.001Z,-0.12
2023-01-22T01:41:03.919Z,-0.06
2023-01-22T01:42:03.930Z,-0.12
2023-01-22T01:43:03.913Z,-0.12
2023-01-22T01:44:03.754Z,-0.12
2023-01-22T01:45:03.669Z,-0.12
2023-01-22T01:46:03.585Z,-0.12
2023-01-22T01:47:03.671Z,-0.12
2023-01-22T01:48:03.585Z,-0.12
2023-01-22T01:49:03.595Z,-0.12
2023-01-22T01:50:03.588Z,-0.12
2023-01-22T01:51:03.633Z,-0.12
2023-01-22T01:52:03.519Z,-0.12
2023-01-22T01:53:04.471Z,-0.12
2023-01-22T01:54:04.393Z,-0.12
2023-01-22T01:55:04.401Z,-0.19
2023-01-22T01:56:04.396Z,-0.12
2023-01-22T01:57:04.303Z,-0.12
2023-01-22T01:58:05.975Z,-0.12
2023-01-22T01:59:04.238Z,-0.19
2023-01-22T02:00:04.150Z,-0.19
2023-01-22T02:01:04.296Z,-0.19
2023-01-22T02:02:04.322Z,-0.19
2023-01-22T02:03:04.307Z,-0.12
2023-01-22T02:04:04.235Z,-0.12
2023-01-22T02:05:04.228Z,-0.12
2023-01-22T02:06:04.157Z,-0.12
2023-01-22T02:07:04.071Z,-0.12
2023-01-22T02:08:04.242Z,-0.12
2023-01-22T02:09:04.247Z,-0.12
2023-01-22T02:10:04.238Z,-0.12
2023-01-22T02:11:04.224Z,-0.12
2023-01-22T02:12:04.234Z,-0.12
2023-01-22T02:13:04.254Z,-0.12
2023-01-22T02:14:04.231Z,-0.12
2023-01-22T02:15:04.233Z,-0.12
2023-01-22T02:16:04.284Z,-0.12
2023-01-22T02:17:04.150Z,-0.19
2023-01-22T02:18:04.100Z,-0.19
2023-01-22T02:19:04.070Z,-0.19
2023-01-22T02:20:04.082Z,-0.19
2023-01-22T02:21:04.032Z,-0.19
2023-01-22T02:22:04.001Z,-0.12
2023-01-22T02:23:04.069Z,-0.12
2023-01-22T02:24:04.001Z,-0.12
2023-01-22T02:25:03.996Z,-0.12
2023-01-22T02:26:03.999Z,-0.12
2023-01-22T02:27:03.992Z,-0.12
2023-01-22T02:28:03.991Z,-0.12
2023-01-22T02:29:03.920Z,-0.12
2023-01-22T02:30:03.922Z,-0.12
2023-01-22T02:31:03.967Z,-0.12
2023-01-22T02:32:03.917Z,-0.12
2023-01-22T02:33:03.927Z,-0.12
2023-01-22T02:34:03.923Z,-0.12
2023-01-22T02:35:03.825Z,-0.12
2023-01-22T02:36:03.751Z,-0.12
2023-01-22T02:37:03.838Z,-0.12
2023-01-22T02:38:03.754Z,-0.12
2023-01-22T02:39:03.914Z,-0.12
2023-01-22T02:40:03.773Z,-0.12
2023-01-22T02:41:03.758Z,-0.06
2023-01-22T02:42:03.743Z,-0.06
2023-01-22T02:43:03.669Z,-0.12
2023-01-22T02:44:03.671Z,-0.12
2023-01-22T02:45:03.688Z,-0.12
2023-01-22T02:46:03.655Z,-0.12
2023-01-22T02:47:03.671Z,-0.12
2023-01-22T02:48:03.512Z,-0.12
2023-01-22T02:49:03.526Z,-0.12
2023-01-22T02:50:04.478Z,-0.12
2023-01-22T02:51:04.444Z,-0.12
2023-01-22T02:52:04.409Z,-0.12
2023-01-22T02:53:04.319Z,-0.12
2023-01-22T02:54:04.313Z,-0.12
2023-01-22T02:55:04.395Z,-0.12
2023-01-22T02:56:04.405Z,-0.06
2023-01-22T02:57:04.320Z,-0.06
2023-01-22T02:58:04.226Z,-0.06
2023-01-22T02:59:04.334Z,-0.06
2023-01-22T03:00:04.237Z,-0.06
2023-01-22T03:01:04.294Z,-0.06
2023-01-22T03:02:04.338Z,-0.06
2023-01-22T03:03:04.314Z,-0.06
2023-01-22T03:04:04.301Z,-0.06
2023-01-22T03:05:04.335Z,-0.06
2023-01-22T03:06:04.230Z,-0.06
2023-01-22T03:07:04.238Z,-0.06
2023-01-22T03:08:04.238Z,-0.06
2023-01-22T03:09:04.311Z,-0.06
2023-01-22T03:10:04.415Z,-0.06
2023-01-22T03:11:04.307Z,-0.06
2023-01-22T03:12:04.401Z,-0.06
2023-01-22T03:13:03.985Z,-0.06
2023-01-22T03:14:03.989Z,-0.06
2023-01-22T03:15:03.909Z,-0.06
2023-01-22T03:16:04.107Z,0.00
2023-01-22T03:17:04.068Z,-0.06
2023-01-22T03:18:04.156Z,-0.06
2023-01-22T03:19:04.066Z,-0.06
2023-01-22T03:20:04.073Z,-0.06
2023-01-22T03:21:04.097Z,-0.06
2023-01-22T03:22:04.001Z,-0.06
2023-01-22T03:23:03.906Z,-0.06
2023-01-22T03:24:03.908Z,-0.06
2023-01-22T03:25:03.757Z,-0.06
2023-01-22T03:26:03.678Z,-0.06
2023-01-22T03:27:03.679Z,-0.06
2023-01-22T03:28:03.687Z,-0.06
2023-01-22T03:29:03.743Z,-0.06
2023-01-22T03:30:03.689Z,-0.06
2023-01-22T03:31:03.902Z,-0.06
2023-01-22T03:32:03.714Z,-0.06
2023-01-22T03:33:03.671Z,-0.06
2023-01-22T03:34:03.768Z,-0.06
2023-01-22T03:35:03.677Z,-0.06
2023-01-22T03:36:03.683Z,-0.06
2023-01-22T03:37:03.517Z,-0.06
2023-01-22T03:38:03.542Z,-0.06
2023-01-22T03:39:03.427Z,-0.06
2023-01-22T03:40:03.590Z,-0.06
2023-01-22T03:41:03.517Z,-0.06
2023-01-22T03:42:03.525Z,-0.06
2023-01-22T03:43:03.424Z,-0.06
2023-01-22T03:44:04.494Z,-0.06
2023-01-22T03:45:03.828Z,-0.06
2023-01-22T03:46:03.956Z,-0.06
2023-01-22T03:47:03.842Z,-0.06
2023-01-22T03:48:03.776Z,-0.06
2023-01-22T03:49:03.667Z,-0.06
2023-01-22T03:50:03.669Z,-0.06
2023-01-22T03:51:03.791Z,-0.06
2023-01-22T03:52:03.880Z,-0.06
2023-01-22T03:53:03.762Z,0.00
2023-01-22T03:54:03.674Z,-0.06
2023-01-22T03:55:03.667Z,-0.06
2023-01-22T03:56:03.754Z,-0.06
2023-01-22T03:57:03.700Z,-0.06
2023-01-22T03:58:03.680Z,-0.06
2023-01-22T03:59:03.582Z,-0.06
2023-01-22T04:00:03.671Z,-0.06
2023-01-22T04:01:03.749Z,-0.06
2023-01-22T04:02:03.611Z,-0.06
2023-01-22T04:03:03.835Z,-0.06
2023-01-22T04:04:03.760Z,-0.06
2023-01-22T04:05:03.763Z,-0.06
2023-01-22T04:06:03.761Z,-0.06
2023-01-22T04:07:03.831Z,-0.06
2023-01-22T04:08:03.837Z,-0.06
2023-01-22T04:09:03.829Z,-0.06
2023-01-22T04:10:03.912Z,-0.06
2023-01-22T04:11:03.752Z,-0.06
2023-01-22T04:12:03.967Z,-0.06
2023-01-22T04:13:03.912Z,-0.06
2023-01-22T04:14:03.755Z,-0.06
2023-01-22T04:15:03.828Z,-0.06
2023-01-22T04:16:03.833Z,-0.06
2023-01-22T04:17:03.827Z,-0.06
2023-01-22T04:18:03.827Z,-0.06
2023-01-22T04:19:03.909Z,-0.06
2023-01-22T04:20:03.918Z,-0.06
2023-01-22T04:21:03.915Z,-0.06
2023-01-22T04:22:03.852Z,-0.06
2023-01-22T04:23:03.915Z,-0.06
2023-01-22T04:24:03.830Z,-0.06
2023-01-22T04:25:03.757Z,-0.06
2023-01-22T04:26:03.679Z,-0.06
2023-01-22T04:27:03.720Z,-0.06
2023-01-22T04:28:03.760Z,-0.06
2023-01-22T04:29:03.691Z,0.00
2023-01-22T04:30:03.613Z,0.00
2023-01-22T04:31:03.686Z,0.00
2023-01-22T04:32:03.678Z,0.00
2023-01-22T04:33:03.509Z,0.00
2023-01-22T04:34:03.542Z,0.00
2023-01-22T04:35:03.519Z,0.00
2023-01-22T04:36:03.602Z,0.00
2023-01-22T04:37:03.520Z,0.00
2023-01-22T04:38:03.663Z,0.00
2023-01-22T04:39:03.697Z,0.00
2023-01-22T04:40:03.676Z,0.00
2023-01-22T04:41:03.770Z,-0.06
2023-01-22T04:42:03.671Z,-0.06
2023-01-22T04:43:03.751Z,-0.06
2023-01-22T04:44:03.675Z,-0.06
2023-01-22T04:45:03.671Z,-0.06
2023-01-22T04:46:03.729Z,-0.06
2023-01-22T04:47:03.672Z,-0.06
2023-01-22T04:48:03.671Z,-0.06
2023-01-22T04:49:03.525Z,-0.06
2023-01-22T04:50:03.679Z,-0.06
2023-01-22T04:51:03.671Z,-0.06
2023-01-22T04:52:03.516Z,-0.06
2023-01-22T04:53:03.506Z,-0.06
2023-01-22T04:54:04.406Z,-0.06
2023-01-22T04:55:04.394Z,-0.12
2023-01-22T04:56:04.310Z,-0.12
2023-01-22T04:57:04.306Z,-0.12
2023-01-22T04:58:04.308Z,-0.06
2023-01-22T04:59:04.313Z,-0.06
2023-01-22T05:00:04.226Z,-0.06
2023-01-22T05:01:04.297Z,-0.06
2023-01-22T05:02:04.235Z,-0.06
2023-01-22T05:03:04.152Z,-0.06
2023-01-22T05:04:04.070Z,-0.06
2023-01-22T05:05:04.084Z,-0.06
2023-01-22T05:06:04.168Z,-0.06
2023-01-22T05:07:03.994Z,0.00
2023-01-22T05:08:04.080Z,-0.06
2023-01-22T05:09:03.990Z,-0.06
2023-01-22T05:10:04.083Z,-0.06
2023-01-22T05:11:04.184Z,0.00
2023-01-22T05:12:03.999Z,-0.06
2023-01-22T05:13:04.071Z,-0.06
2023-01-22T05:14:03.987Z,-0.06
2023-01-22T05:15:07.238Z,-0.12
2023-01-22T05:16:04.051Z,-0.12
2023-01-22T05:17:04.073Z,-0.06
2023-01-22T05:18:04.069Z,-0.06
2023-01-22T05:19:04.098Z,-0.06
2023-01-22T05:20:04.147Z,-0.06
2023-01-22T05:21:04.319Z,-0.06
2023-01-22T05:22:04.235Z,-0.06
2023-01-22T05:23:04.149Z,-0.06
2023-01-22T05:24:04.230Z,-0.06
2023-01-22T05:25:04.620Z,-0.06
2023-01-22T05:26:04.397Z,-0.06
2023-01-22T05:27:04.245Z,-0.06
2023-01-22T05:28:04.311Z,-0.06
2023-01-22T05:29:04.263Z,-0.06
2023-01-22T05:30:04.397Z,-0.06
2023-01-22T05:31:04.510Z,-0.06
2023-01-22T05:32:04.320Z,-0.06
2023-01-22T05:33:04.390Z,-0.06
2023-01-22T05:34:04.393Z,-0.06
2023-01-22T05:35:03.435Z,-0.06
2023-01-22T05:36:03.540Z,-0.06
2023-01-22T05:37:03.510Z,-0.06
2023-01-22T05:38:03.591Z,-0.06
2023-01-22T05:39:03.429Z,-0.06
2023-01-22T05:40:03.512Z,-0.06
2023-01-22T05:41:03.518Z,-0.06
2023-01-22T05:42:04.474Z,-0.06
2023-01-22T05:43:04.397Z,-0.06
2023-01-22T05:44:04.402Z,-0.06
2023-01-22T05:45:04.316Z,-0.06
2023-01-22T05:46:03.878Z,-0.06
2023-01-22T05:47:03.751Z,-0.06
2023-01-22T05:48:03.668Z,-0.06
2023-01-22T05:49:03.679Z,-0.06
2023-01-22T05:50:03.676Z,0.00
2023-01-22T05:51:03.705Z,-0.06
2023-01-22T05:52:03.759Z,0.00
2023-01-22T05:53:03.753Z,0.00
2023-01-22T05:54:03.672Z,0.00
2023-01-22T05:55:03.759Z,0.00
2023-01-22T05:56:03.755Z,0.00
2023-01-22T05:57:03.770Z,0.00
2023-01-22T05:58:06.129Z,0.00
2023-01-22T05:59:03.590Z,0.00
2023-01-22T06:00:03.848Z,0.00
2023-01-22T06:01:03.831Z,0.00
2023-01-22T06:02:03.914Z,0.00
2023-01-22T06:03:03.828Z,0.00
2023-01-22T06:04:03.987Z,0.00
2023-01-22T06:05:04.065Z,0.00
2023-01-22T06:06:04.002Z,0.00
2023-01-22T06:07:03.930Z,0.00
2023-01-22T06:08:03.837Z,0.00
2023-01-22T06:09:03.930Z,0.00
2023-01-22T06:10:04.238Z,-0.06
2023-01-22T06:11:04.153Z,0.00
2023-01-22T06:12:04.241Z,0.00
2023-01-22T06:13:04.165Z,0.00
2023-01-22T06:14:04.101Z,0.00
2023-01-22T06:15:04.099Z,0.00
2023-01-22T06:16:04.209Z,0.00
2023-01-22T06:17:04.072Z,0.00
2023-01-22T06:18:04.067Z,0.00
2023-01-22T06:19:04.172Z,0.00
2023-01-22T06:20:04.063Z,0.00
2023-01-22T06:21:04.069Z,0.00
2023-01-22T06:22:04.099Z,0.00
2023-01-22T06:23:04.145Z,0.00
2023-01-22T06:24:03.992Z,0.00
2023-01-22T06:25:04.022Z,0.00
2023-01-22T06:26:03.904Z,0.00
2023-01-22T06:27:03.912Z,0.00
2023-01-22T06:28:03.833Z,0.00
2023-01-22T06:29:03.915Z,0.00
2023-01-22T06:30:03.749Z,0.00
2023-01-22T06:31:03.811Z,0.00
2023-01-22T06:32:03.775Z,0.00
2023-01-22T06:33:03.670Z,0.00
2023-01-22T06:34:03.677Z,0.00
2023-01-22T06:35:03.785Z,0.00
2023-01-22T06:36:03.661Z,0.00
2023-01-22T06:37:03.599Z,0.00
2023-01-22T06:38:03.598Z,0.00
2023-01-22T06:39:03.517Z,0.00
2023-01-22T06:40:03.508Z,0.00
2023-01-22T06:41:03.601Z,0.00
2023-01-22T06:42:03.519Z,0.00
2023-01-22T06:43:04.393Z,0.00
2023-01-22T06:44:03.433Z,0.00
2023-01-22T06:45:04.397Z,0.00
2023-01-22T06:46:04.319Z,0.06
2023-01-22T06:47:04.240Z,0.00
2023-01-22T06:48:04.328Z,0.00
2023-01-22T06:49:04.233Z,0.00
2023-01-22T06:50:04.234Z,0.00
2023-01-22T06:51:04.284Z,0.00
2023-01-22T06:52:04.147Z,0.00
2023-01-22T06:53:04.159Z,0.00
2023-01-22T06:54:04.169Z,0.00
2023-01-22T06:55:04.103Z,0.00
2023-01-22T06:56:04.000Z,0.00
2023-01-22T06:57:04.082Z,0.00
2023-01-22T06:58:04.001Z,0.00
2023-01-22T06:59:03.999Z,0.00
2023-01-22T07:00:03.993Z,0.00
2023-01-22T07:01:03.833Z,0.00
2023-01-22T07:02:03.911Z,0.00
2023-01-22T07:03:03.915Z,0.06
2023-01-22T07:04:03.706Z,0.00
2023-01-22T07:05:03.679Z,0.00
2023-01-22T07:06:03.615Z,0.06
2023-01-22T07:07:03.598Z,0.06
2023-01-22T07:08:03.532Z,0.06
2023-01-22T07:09:03.428Z,0.06
2023-01-22T07:10:04.397Z,0.00
2023-01-22T07:11:06.337Z,0.00
2023-01-22T07:12:04.319Z,0.06
2023-01-22T07:13:04.361Z,0.00
2023-01-22T07:14:04.159Z,0.00
2023-01-22T07:15:04.230Z,0.00
2023-01-22T07:16:04.251Z,0.06
2023-01-22T07:17:04.118Z,0.06
2023-01-22T07:18:04.248Z,0.06
2023-01-22T07:19:04.391Z,0.06
2023-01-22T07:20:04.317Z,0.06
2023-01-22T07:21:04.161Z,0.06
2023-01-22T07:22:04.268Z,0.06
2023-01-22T07:23:04.254Z,0.06
2023-01-22T07:24:04.152Z,0.06
2023-01-22T07:25:04.166Z,0.06
2023-01-22T07:26:04.237Z,0.06
2023-01-22T07:27:04.243Z,0.06
2023-01-22T07:28:04.071Z,0.06
2023-01-22T07:29:04.083Z,0.06
2023-01-22T07:30:04.076Z,0.06
2023-01-22T07:31:04.070Z,0.06
2023-01-22T07:32:03.911Z,0.06
2023-01-22T07:33:03.836Z,0.06
2023-01-22T07:34:03.826Z,0.06
2023-01-22T07:35:03.832Z,0.06
2023-01-22T07:36:03.929Z,0.06
2023-01-22T07:37:03.773Z,0.06
2023-01-22T07:38:03.832Z,0.06
2023-01-22T07:39:03.744Z,0.12
2023-01-22T07:40:03.679Z,0.12
2023-01-22T07:41:05.600Z,0.12
2023-01-22T07:42:03.756Z,0.12
2023-01-22T07:43:03.754Z,0.12
2023-01-22T07:44:03.831Z,0.12
2023-01-22T07:45:03.856Z,0.12
2023-01-22T07:46:03.779Z,0.12
2023-01-22T07:47:03.748Z,0.12
2023-01-22T07:48:03.756Z,0.19
2023-01-22T07:49:03.666Z,0.19
2023-01-22T07:50:03.670Z,0.19
2023-01-22T07:51:03.687Z,0.19
2023-01-22T07:52:03.620Z,0.19
2023-01-22T07:53:03.510Z,0.19
2023-01-22T07:54:03.439Z,0.19
2023-01-22T07:55:04.388Z,0.19
2023-01-22T07:56:04.419Z,0.19
2023-01-22T07:57:04.313Z,0.19
2023-01-22T07:58:04.407Z,0.19
2023-01-22T07:59:04.398Z,0.19
2023-01-22T08:00:04.314Z,0.19
2023-01-22T08:01:03.485Z,0.19
2023-01-22T08:02:03.882Z,0.19
2023-01-22T08:03:03.756Z,0.25
2023-01-22T08:04:03.673Z,0.19
2023-01-22T08:05:03.675Z,0.25
2023-01-22T08:06:03.589Z,0.25
2023-01-22T08:07:03.598Z,0.25
2023-01-22T08:08:03.509Z,0.25
2023-01-22T08:09:03.583Z,0.19
2023-01-22T08:10:03.511Z,0.19
2023-01-22T08:11:03.539Z,0.19
2023-01-22T08:12:03.432Z,0.19
2023-01-22T08:13:04.403Z,0.25
2023-01-22T08:14:03.520Z,0.25
2023-01-22T08:15:03.520Z,0.25
2023-01-22T08:16:04.562Z,0.25
2023-01-22T08:17:04.306Z,0.25
2023-01-22T08:18:04.399Z,0.25
2023-01-22T08:19:04.303Z,0.31
2023-01-22T08:20:04.319Z,0.31
2023-01-22T08:21:04.229Z,0.31
2023-01-22T08:22:03.604Z,0.31
2023-01-22T08:23:03.602Z,0.31
2023-01-22T08:24:03.519Z,0.31
2023-01-22T08:25:03.541Z,0.31
2023-01-22T08:26:04.482Z,0.31
2023-01-22T08:27:04.390Z,0.31
2023-01-22T08:28:04.312Z,0.31
2023-01-22T08:29:06.524Z,0.31
2023-01-22T08:30:04.386Z,0.31
2023-01-22T08:31:04.380Z,0.31
2023-01-22T08:32:04.531Z,0.31
2023-01-22T08:33:04.227Z,0.38
2023-01-22T08:34:04.246Z,0.38
2023-01-22T08:35:04.254Z,0.38
2023-01-22T08:36:04.162Z,0.38
2023-01-22T08:37:04.175Z,0.38
2023-01-22T08:38:04.107Z,0.44
2023-01-22T08:39:04.066Z,0.44
2023-01-22T08:40:03.991Z,0.44
2023-01-22T08:41:04.065Z,0.44
2023-01-22T08:42:04.090Z,0.44
2023-01-22T08:43:04.072Z,0.50
2023-01-22T08:44:03.915Z,0.44
2023-01-22T08:45:03.823Z,0.44
2023-01-22T08:46:03.835Z,0.44
2023-01-22T08:47:03.764Z,0.50
2023-01-22T08:48:03.664Z,0.50
2023-01-22T08:49:03.666Z,0.50
2023-01-22T08:50:03.675Z,0.50
2023-01-22T08:51:03.747Z,0.50
2023-01-22T08:52:03.762Z,0.50
2023-01-22T08:53:03.674Z,0.50
2023-01-22T08:54:03.701Z,0.44
2023-01-22T08:55:03.690Z,0.44
2023-01-22T08:56:03.670Z,0.50
2023-01-22T08:57:03.590Z,0.50
2023-01-22T08:58:03.514Z,0.50
2023-01-22T08:59:03.513Z,0.50
2023-01-22T09:00:03.508Z,0.50
2023-01-22T09:01:03.752Z,0.44
2023-01-22T09:02:03.723Z,0.44
2023-01-22T09:03:03.590Z,0.50
2023-01-22T09:04:03.668Z,0.50
2023-01-22T09:05:03.672Z,0.50
2023-01-22T09:06:03.507Z,0.50
2023-01-22T09:07:04.866Z,0.50
2023-01-22T09:08:03.822Z,0.50
2023-01-22T09:09:03.826Z,0.50
2023-01-22T09:10:03.775Z,0.50
2023-01-22T09:11:03.663Z,0.50
2023-01-22T09:12:03.827Z,0.50
2023-01-22T09:13:03.827Z,0.50
2023-01-22T09:14:03.772Z,0.50
2023-01-22T09:15:03.671Z,0.50
2023-01-22T09:16:03.667Z,0.56
2023-01-22T09:17:03.697Z,0.56
2023-01-22T09:18:03.592Z,0.56
2023-01-22T09:19:03.601Z,0.56
2023-01-22T09:20:03.524Z,0.56
2023-01-22T09:21:03.436Z,0.56
2023-01-22T09:22:04.383Z,0.56
2023-01-22T09:23:04.407Z,0.56
2023-01-22T09:24:04.323Z,0.56
2023-01-22T09:25:04.227Z,0.56
2023-01-22T09:26:04.228Z,0.56
2023-01-22T09:27:04.232Z,0.56
2023-01-22T09:28:04.163Z,0.56
2023-01-22T09:29:04.166Z,0.62
2023-01-22T09:30:04.168Z,0.62
2023-01-22T09:31:04.422Z,0.62
2023-01-22T09:32:04.271Z,0.62
2023-01-22T09:33:04.220Z,0.62
2023-01-22T09:34:04.311Z,0.62
2023-01-22T09:35:04.318Z,0.69
2023-01-22T09:36:04.307Z,0.62
2023-01-22T09:37:04.392Z,0.69
2023-01-22T09:38:04.309Z,0.69
2023-01-22T09:39:04.226Z,0.62
2023-01-22T09:40:04.413Z,0.62
2023-01-22T09:41:04.308Z,0.69
2023-01-22T09:42:04.244Z,0.69
2023-01-22T09:43:04.317Z,0.69
2023-01-22T09:44:04.322Z,0.75
2023-01-22T09:45:04.310Z,0.75
2023-01-22T09:46:04.426Z,0.75
2023-01-22T09:47:04.318Z,0.69
2023-01-22T09:48:04.312Z,0.69
2023-01-22T09:49:04.301Z,0.62
2023-01-22T09:50:04.349Z,0.62
2023-01-22T09:51:04.316Z,0.69
2023-01-22T09:52:05.303Z,0.69
2023-01-22T09:53:04.312Z,0.69
2023-01-22T09:54:04.235Z,0.75
2023-01-22T09:55:04.470Z,0.75
2023-01-22T09:56:04.475Z,0.75
2023-01-22T09:57:04.304Z,0.75
2023-01-22T09:58:04.320Z,0.75
2023-01-22T09:59:03.432Z,0.75
2023-01-22T10:00:04.395Z,0.81
2023-01-22T10:01:04.358Z,0.81
2023-01-22T10:02:04.426Z,0.81
2023-01-22T10:03:04.310Z,0.88
2023-01-22T10:04:04.076Z,0.88
2023-01-22T10:05:03.991Z,0.81
2023-01-22T10:06:04.072Z,0.81
2023-01-22T10:07:03.901Z,0.75
2023-01-22T10:08:03.903Z,0.75
2023-01-22T10:09:04.075Z,0.81
2023-01-22T10:10:03.997Z,0.81
2023-01-22T10:11:03.915Z,0.81
2023-01-22T10:12:03.780Z,0.81
2023-01-22T10:13:03.826Z,0.81
2023-01-22T10:14:03.749Z,0.88
2023-01-22T10:15:03.682Z,0.81
2023-01-22T10:16:03.583Z,0.88
2023-01-22T10:17:03.524Z,0.81
2023-01-22T10:18:03.513Z,0.81
2023-01-22T10:19:03.507Z,0.88
2023-01-22T10:20:03.438Z,0.88
2023-01-22T10:21:03.526Z,0.88
2023-01-22T10:22:03.589Z,0.94
2023-01-22T10:23:03.434Z,0.94
2023-01-22T10:24:03.600Z,0.94
2023-01-22T10:25:03.642Z,0.88
2023-01-22T10:26:03.503Z,0.88
2023-01-22T10:27:03.598Z,0.88
2023-01-22T10:28:03.519Z,0.88
2023-01-22T10:29:03.593Z,0.94
2023-01-22T10:30:03.513Z,0.94
2023-01-22T10:31:03.491Z,0.94
2023-01-22T10:32:03.507Z,0.94
2023-01-22T10:33:04.486Z,0.94
2023-01-22T10:34:04.388Z,0.94
2023-01-22T10:35:04.303Z,0.94
2023-01-22T10:36:04.307Z,0.94
2023-01-22T10:37:04.145Z,0.94
2023-01-22T10:38:04.061Z,0.94
2023-01-22T10:39:03.991Z,0.94
2023-01-22T10:40:03.924Z,0.94
2023-01-22T10:41:03.905Z,0.94
2023-01-22T10:42:03.918Z,0.94
2023-01-22T10:43:03.763Z,1.00
2023-01-22T10:44:03.755Z,1.00
2023-01-22T10:45:03.756Z,1.00
2023-01-22T10:46:03.783Z,1.00
2023-01-22T10:47:03.670Z,1.00
2023-01-22T10:48:03.675Z,1.06
2023-01-22T10:49:03.620Z,1.06
2023-01-22T10:50:04.665Z,1.00
2023-01-22T10:51:03.600Z,1.00
2023-01-22T10:52:03.509Z,1.00
2023-01-22T10:53:03.431Z,1.00
2023-01-22T10:54:04.468Z,1.06
2023-01-22T10:55:03.531Z,1.06
2023-01-22T10:56:04.420Z,1.06
2023-01-22T10:57:03.524Z,1.12
2023-01-22T10:58:04.403Z,1.12
2023-01-22T10:59:04.388Z,1.12
2023-01-22T11:00:04.485Z,1.12
2023-01-22T11:01:03.584Z,1.12
2023-01-22T11:02:04.453Z,1.19
2023-01-22T11:03:04.388Z,1.19
2023-01-22T11:04:03.522Z,1.19
2023-01-22T11:05:04.393Z,1.19
2023-01-22T11:06:04.394Z,1.25
2023-01-22T11:07:03.429Z,1.19
2023-01-22T11:08:04.385Z,1.19
2023-01-22T11:09:04.317Z,1.19
2023-01-22T11:10:04.338Z,1.19
2023-01-22T11:11:04.154Z,1.19
2023-01-22T11:12:04.169Z,1.19
2023-01-22T11:13:04.148Z,1.19
2023-01-22T11:14:04.149Z,1.19
2023-01-22T11:15:04.234Z,1.19
2023-01-22T11:16:04.311Z,1.25
2023-01-22T11:17:04.146Z,1.25
2023-01-22T11:18:04.154Z,1.25
2023-01-22T11:19:04.073Z,1.25
2023-01-22T11:20:04.088Z,1.25
2023-01-22T11:21:03.989Z,1.25
2023-01-22T11:22:03.994Z,1.19
2023-01-22T11:23:03.829Z,1.19
2023-01-22T11:24:03.841Z,1.19
2023-01-22T11:25:03.843Z,1.19
2023-01-22T11:26:03.991Z,1.25
2023-01-22T11:27:04.019Z,1.19
2023-01-22T11:28:03.912Z,1.19
2023-01-22T11:29:03.829Z,1.19
2023-01-22T11:30:03.944Z,1.19
2023-01-22T11:31:03.908Z,1.19
2023-01-22T11:32:03.759Z,1.19
2023-01-22T11:33:03.763Z,1.19
2023-01-22T11:34:03.671Z,1.19
2023-01-22T11:35:03.752Z,1.19
2023-01-22T11:36:03.678Z,1.19
2023-01-22T11:37:03.754Z,1.19
2023-01-22T11:38:03.825Z,1.19
2023-01-22T11:39:03.596Z,1.19
2023-01-22T11:40:03.599Z,1.12
2023-01-22T11:41:03.512Z,1.19
2023-01-22T11:42:04.385Z,1.19
2023-01-22T11:43:04.406Z,1.12
2023-01-22T11:44:04.475Z,1.12
2023-01-22T11:45:03.515Z,1.06
2023-01-22T11:46:04.414Z,1.00
2023-01-22T11:47:04.329Z,1.06
2023-01-22T11:48:04.229Z,1.06
2023-01-22T11:49:04.322Z,1.06
2023-01-22T11:50:04.313Z,1.06
2023-01-22T11:51:04.458Z,1.00
2023-01-22T11:52:04.396Z,1.00
2023-01-22T11:53:04.315Z,1.00
2023-01-22T11:54:04.252Z,1.06
2023-01-22T11:55:04.162Z,1.06
2023-01-22T11:56:04.097Z,1.06
2023-01-22T11:57:04.003Z,1.06
2023-01-22T11:58:03.989Z,1.12
2023-01-22T11:59:03.907Z,1.12
2023-01-22T12:00:03.913Z,1.12
2023-01-22T12:01:03.843Z,1.12
2023-01-22T12:02:03.775Z,1.12
2023-01-22T12:03:03.832Z,1.12
2023-01-22T12:04:03.776Z,1.12
2023-01-22T12:05:03.674Z,1.12
2023-01-22T12:06:03.590Z,1.06
2023-01-22T12:07:03.673Z,1.06
2023-01-22T12:08:03.689Z,1.06
2023-01-22T12:09:03.593Z,1.06
2023-01-22T12:10:04.469Z,1.06
2023-01-22T12:11:04.477Z,1.06
2023-01-22T12:12:04.396Z,1.00
2023-01-22T12:13:04.316Z,1.00
2023-01-22T12:14:04.400Z,1.06
2023-01-22T12:15:04.311Z,1.06
2023-01-22T12:16:05.542Z,1.06
2023-01-22T12:17:04.069Z,1.06
2023-01-22T12:18:04.147Z,1.06
2023-01-22T12:19:04.247Z,1.06
2023-01-22T12:20:04.157Z,1.00
2023-01-22T12:21:04.064Z,1.06
2023-01-22T12:22:04.166Z,1.06
2023-01-22T12:23:04.143Z,1.06
2023-01-22T12:24:04.083Z,1.00
2023-01-22T12:25:04.072Z,1.00
2023-01-22T12:26:04.003Z,1.00
2023-01-22T12:27:04.317Z,1.00
2023-01-22T12:28:03.428Z,1.00
2023-01-22T12:29:04.386Z,1.06
2023-01-22T12:30:03.522Z,1.06
2023-01-22T12:31:04.507Z,1.06
2023-01-22T12:32:03.429Z,1.00
2023-01-22T12:33:05.303Z,1.00
2023-01-22T12:34:04.396Z,1.00
2023-01-22T12:35:04.321Z,0.94
2023-01-22T12:36:04.333Z,0.94
2023-01-22T12:37:04.397Z,0.94
2023-01-22T12:38:04.401Z,0.88
2023-01-22T12:39:04.619Z,0.88
2023-01-22T12:40:04.513Z,0.88
2023-01-22T12:41:04.309Z,0.88
2023-01-22T12:42:04.310Z,0.88
2023-01-22T12:43:04.235Z,0.88
2023-01-22T12:44:04.229Z,0.88
2023-01-22T12:45:04.149Z,0.81
2023-01-22T12:46:04.153Z,0.81
2023-01-22T12:47:04.148Z,0.88
2023-01-22T12:48:04.070Z,0.88
2023-01-22T12:49:03.990Z,0.88
2023-01-22T12:50:04.956Z,0.94
2023-01-22T12:51:04.128Z,0.94
2023-01-22T12:52:03.999Z,0.94
2023-01-22T12:53:03.909Z,0.94
2023-01-22T12:54:03.830Z,0.94
2023-01-22T12:55:03.748Z,0.94
2023-01-22T12:56:03.702Z,0.94
2023-01-22T12:57:03.680Z,0.94
2023-01-22T12:58:03.436Z,0.94
2023-01-22T12:59:03.511Z,0.94
2023-01-22T13:00:03.603Z,0.94
2023-01-22T13:01:03.609Z,0.94
2023-01-22T13:02:04.504Z,0.94
2023-01-22T13:03:04.397Z,0.88
2023-01-22T13:04:03.521Z,0.94
2023-01-22T13:05:04.385Z,0.94
2023-01-22T13:06:04.306Z,0.88
2023-01-22T13:07:04.391Z,0.88